Terminal Aerodrome Forecast
Issued by NWS

Home | Current Version | Previous Version | Text Only | Print | Product List | Glossary On
Versions: 1 2 3 4 5 6 7 8 9 10 11 12 13 14 15 16 17 18 19
000
FTUS42 KFFC 262342
TAFFTY
TAF
KFTY 262342Z 2700/2724 10012KT P6SM FEW050 BKN250
      TEMPO 2700/2701 VRB18G34KT 4SM TSRA BKN040CB
     FM270100 14004KT P6SM FEW080
     FM270900 15003KT P6SM SCT015
     FM271400 15005KT P6SM SCT035
     FM271700 25005KT P6SM SCT050 SCT250 PROB30 2720/2723 P6SM TSRA
      BKN040CB=

USA.gov is the U.S. government's official web portal to all federal, state and local government web resources and services.